sensor_id;sensor_type;location;lat;lon;timestamp;P1;durP1;ratioP1;P2;durP2;ratioP2
37203;SDS011;23098;48.054;10.636;2022-11-06T00:01:06;20.83;;;12.63;;
37203;SDS011;23098;48.054;10.636;2022-11-06T00:03:34;14.93;;;9.15;;
37203;SDS011;23098;48.054;10.636;2022-11-06T00:06:05;15.70;;;9.20;;
37203;SDS011;23098;48.054;10.636;2022-11-06T00:08:53;15.45;;;8.75;;
37203;SDS011;23098;48.054;10.636;2022-11-06T00:11:19;16.98;;;10.82;;
37203;SDS011;23098;48.054;10.636;2022-11-06T00:13:45;23.17;;;12.05;;
37203;SDS011;23098;48.054;10.636;2022-11-06T00:16:16;36.25;;;18.20;;
37203;SDS011;23098;48.054;10.636;2022-11-06T00:18:42;25.42;;;13.88;;
37203;SDS011;23098;48.054;10.636;2022-11-06T00:21:11;23.23;;;12.95;;
37203;SDS011;23098;48.054;10.636;2022-11-06T00:26:06;13.40;;;7.97;;
37203;SDS011;23098;48.054;10.636;2022-11-06T00:28:36;13.35;;;7.97;;
37203;SDS011;23098;48.054;10.636;2022-11-06T00:31:03;12.88;;;8.00;;
37203;SDS011;23098;48.054;10.636;2022-11-06T00:33:30;12.07;;;8.25;;
37203;SDS011;23098;48.054;10.636;2022-11-06T00:35:56;12.60;;;8.32;;
37203;SDS011;23098;48.054;10.636;2022-11-06T00:38:22;13.35;;;8.48;;
37203;SDS011;23098;48.054;10.636;2022-11-06T00:40:48;12.30;;;7.88;;
37203;SDS011;23098;48.054;10.636;2022-11-06T00:43:13;12.85;;;8.45;;
37203;SDS011;23098;48.054;10.636;2022-11-06T00:45:39;12.18;;;7.78;;
37203;SDS011;23098;48.054;10.636;2022-11-06T00:48:04;15.15;;;8.25;;
37203;SDS011;23098;48.054;10.636;2022-11-06T00:50:31;11.45;;;7.95;;
37203;SDS011;23098;48.054;10.636;2022-11-06T00:52:56;12.68;;;8.02;;
37203;SDS011;23098;48.054;10.636;2022-11-06T00:55:22;13.20;;;8.20;;
37203;SDS011;23098;48.054;10.636;2022-11-06T00:57:47;11.43;;;7.00;;
37203;SDS011;23098;48.054;10.636;2022-11-06T01:00:13;14.20;;;8.38;;
37203;SDS011;23098;48.054;10.636;2022-11-06T01:02:42;15.10;;;8.93;;
37203;SDS011;23098;48.054;10.636;2022-11-06T01:05:09;12.70;;;8.13;;
37203;SDS011;23098;48.054;10.636;2022-11-06T01:07:34;11.50;;;7.22;;
37203;SDS011;23098;48.054;10.636;2022-11-06T01:10:00;12.07;;;7.20;;
37203;SDS011;23098;48.054;10.636;2022-11-06T01:12:25;11.85;;;7.70;;
37203;SDS011;23098;48.054;10.636;2022-11-06T01:14:51;10.80;;;7.38;;
37203;SDS011;23098;48.054;10.636;2022-11-06T01:17:16;12.55;;;7.85;;
37203;SDS011;23098;48.054;10.636;2022-11-06T01:19:42;12.68;;;7.95;;
37203;SDS011;23098;48.054;10.636;2022-11-06T01:22:08;14.70;;;7.72;;
37203;SDS011;23098;48.054;10.636;2022-11-06T01:24:34;13.05;;;8.30;;
37203;SDS011;23098;48.054;10.636;2022-11-06T01:26:59;16.45;;;9.18;;
37203;SDS011;23098;48.054;10.636;2022-11-06T01:29:25;14.32;;;9.20;;
37203;SDS011;23098;48.054;10.636;2022-11-06T01:31:51;13.98;;;8.77;;
37203;SDS011;23098;48.054;10.636;2022-11-06T01:34:18;16.38;;;9.18;;
37203;SDS011;23098;48.054;10.636;2022-11-06T01:36:43;14.88;;;9.23;;
37203;SDS011;23098;48.054;10.636;2022-11-06T01:39:12;15.88;;;8.88;;
37203;SDS011;23098;48.054;10.636;2022-11-06T01:41:43;14.45;;;9.18;;
37203;SDS011;23098;48.054;10.636;2022-11-06T01:47:13;17.55;;;9.38;;
37203;SDS011;23098;48.054;10.636;2022-11-06T01:49:43;15.23;;;9.50;;
37203;SDS011;23098;48.054;10.636;2022-11-06T01:52:10;18.75;;;9.57;;
37203;SDS011;23098;48.054;10.636;2022-11-06T01:54:39;16.65;;;9.65;;
37203;SDS011;23098;48.054;10.636;2022-11-06T01:57:07;19.60;;;9.18;;
37203;SDS011;23098;48.054;10.636;2022-11-06T01:59:35;15.82;;;9.10;;
37203;SDS011;23098;48.054;10.636;2022-11-06T02:02:05;15.68;;;8.60;;
37203;SDS011;23098;48.054;10.636;2022-11-06T02:04:31;15.65;;;8.40;;
37203;SDS011;23098;48.054;10.636;2022-11-06T02:07:01;17.27;;;8.23;;
37203;SDS011;23098;48.054;10.636;2022-11-06T02:09:27;15.80;;;8.43;;
37203;SDS011;23098;48.054;10.636;2022-11-06T02:14:34;14.90;;;8.38;;
37203;SDS011;23098;48.054;10.636;2022-11-06T02:17:17;14.48;;;8.48;;
37203;SDS011;23098;48.054;10.636;2022-11-06T02:22:39;15.48;;;7.57;;
37203;SDS011;23098;48.054;10.636;2022-11-06T02:28:23;11.95;;;7.03;;
37203;SDS011;23098;48.054;10.636;2022-11-06T02:31:04;13.30;;;7.82;;
37203;SDS011;23098;48.054;10.636;2022-11-06T02:33:36;12.25;;;7.35;;
37203;SDS011;23098;48.054;10.636;2022-11-06T02:36:09;13.43;;;7.28;;
37203;SDS011;23098;48.054;10.636;2022-11-06T02:38:44;13.90;;;7.65;;
37203;SDS011;23098;48.054;10.636;2022-11-06T02:41:21;12.10;;;7.28;;
37203;SDS011;23098;48.054;10.636;2022-11-06T02:43:51;13.38;;;6.82;;
37203;SDS011;23098;48.054;10.636;2022-11-06T02:46:21;13.15;;;7.38;;
37203;SDS011;23098;48.054;10.636;2022-11-06T02:49:00;12.40;;;7.20;;
37203;SDS011;23098;48.054;10.636;2022-11-06T02:51:30;12.90;;;7.25;;
37203;SDS011;23098;48.054;10.636;2022-11-06T02:54:01;12.95;;;6.88;;
37203;SDS011;23098;48.054;10.636;2022-11-06T02:56:31;11.60;;;6.57;;
37203;SDS011;23098;48.054;10.636;2022-11-06T03:01:56;22.33;;;8.30;;
37203;SDS011;23098;48.054;10.636;2022-11-06T03:04:28;14.93;;;7.85;;
37203;SDS011;23098;48.054;10.636;2022-11-06T03:07:18;22.65;;;7.68;;
37203;SDS011;23098;48.054;10.636;2022-11-06T03:09:52;13.57;;;6.82;;
37203;SDS011;23098;48.054;10.636;2022-11-06T03:15:02;12.00;;;6.30;;
37203;SDS011;23098;48.054;10.636;2022-11-06T03:17:53;12.18;;;7.13;;
37203;SDS011;23098;48.054;10.636;2022-11-06T03:23:12;11.40;;;5.32;;
37203;SDS011;23098;48.054;10.636;2022-11-06T03:28:37;9.03;;;5.73;;
37203;SDS011;23098;48.054;10.636;2022-11-06T03:31:10;14.38;;;7.82;;
37203;SDS011;23098;48.054;10.636;2022-11-06T03:33:47;10.00;;;6.13;;
37203;SDS011;23098;48.054;10.636;2022-11-06T03:36:18;12.63;;;7.28;;
37203;SDS011;23098;48.054;10.636;2022-11-06T03:38:49;13.07;;;6.72;;
37203;SDS011;23098;48.054;10.636;2022-11-06T03:41:19;10.68;;;6.32;;
37203;SDS011;23098;48.054;10.636;2022-11-06T03:43:51;11.20;;;6.10;;
37203;SDS011;23098;48.054;10.636;2022-11-06T03:46:19;10.77;;;6.43;;
37203;SDS011;23098;48.054;10.636;2022-11-06T03:48:50;9.02;;;5.40;;
37203;SDS011;23098;48.054;10.636;2022-11-06T03:51:38;10.43;;;5.73;;
37203;SDS011;23098;48.054;10.636;2022-11-06T03:54:30;10.25;;;5.57;;
37203;SDS011;23098;48.054;10.636;2022-11-06T03:59:34;7.95;;;4.82;;
37203;SDS011;23098;48.054;10.636;2022-11-06T04:02:05;9.30;;;5.50;;
37203;SDS011;23098;48.054;10.636;2022-11-06T04:04:40;8.27;;;5.22;;
37203;SDS011;23098;48.054;10.636;2022-11-06T04:07:13;8.82;;;5.38;;
37203;SDS011;23098;48.054;10.636;2022-11-06T04:09:44;11.57;;;5.70;;
37203;SDS011;23098;48.054;10.636;2022-11-06T04:12:32;40.33;;;13.82;;
37203;SDS011;23098;48.054;10.636;2022-11-06T04:15:18;10.27;;;5.45;;
37203;SDS011;23098;48.054;10.636;2022-11-06T04:17:45;9.77;;;5.38;;
37203;SDS011;23098;48.054;10.636;2022-11-06T04:20:11;8.65;;;5.40;;
37203;SDS011;23098;48.054;10.636;2022-11-06T04:23:06;7.68;;;5.20;;
37203;SDS011;23098;48.054;10.636;2022-11-06T04:26:09;9.70;;;5.70;;
37203;SDS011;23098;48.054;10.636;2022-11-06T04:32:10;8.75;;;5.10;;
37203;SDS011;23098;48.054;10.636;2022-11-06T04:35:05;7.43;;;5.28;;
37203;SDS011;23098;48.054;10.636;2022-11-06T04:37:55;8.70;;;5.30;;
37203;SDS011;23098;48.054;10.636;2022-11-06T04:46:02;9.18;;;5.22;;
37203;SDS011;23098;48.054;10.636;2022-11-06T04:48:30;12.15;;;5.72;;
37203;SDS011;23098;48.054;10.636;2022-11-06T04:50:58;7.22;;;4.90;;
37203;SDS011;23098;48.054;10.636;2022-11-06T04:53:27;12.13;;;6.30;;
37203;SDS011;23098;48.054;10.636;2022-11-06T04:55:55;10.13;;;6.43;;
37203;SDS011;23098;48.054;10.636;2022-11-06T04:58:25;9.27;;;5.90;;
37203;SDS011;23098;48.054;10.636;2022-11-06T05:00:50;11.63;;;5.95;;
37203;SDS011;23098;48.054;10.636;2022-11-06T05:03:16;8.27;;;5.15;;
37203;SDS011;23098;48.054;10.636;2022-11-06T05:05:42;15.32;;;9.10;;
37203;SDS011;23098;48.054;10.636;2022-11-06T05:08:17;9.70;;;5.60;;
37203;SDS011;23098;48.054;10.636;2022-11-06T05:10:45;7.85;;;5.03;;
37203;SDS011;23098;48.054;10.636;2022-11-06T05:13:11;7.68;;;4.97;;
37203;SDS011;23098;48.054;10.636;2022-11-06T05:15:37;6.68;;;4.72;;
37203;SDS011;23098;48.054;10.636;2022-11-06T05:18:03;9.68;;;5.13;;
37203;SDS011;23098;48.054;10.636;2022-11-06T05:20:29;9.05;;;5.40;;
37203;SDS011;23098;48.054;10.636;2022-11-06T05:22:55;7.72;;;4.50;;
37203;SDS011;23098;48.054;10.636;2022-11-06T05:27:57;19.08;;;5.00;;
37203;SDS011;23098;48.054;10.636;2022-11-06T05:30:23;42.65;;;5.78;;
37203;SDS011;23098;48.054;10.636;2022-11-06T05:32:49;32.25;;;5.68;;
37203;SDS011;23098;48.054;10.636;2022-11-06T05:35:15;47.25;;;5.90;;
37203;SDS011;23098;48.054;10.636;2022-11-06T05:37:41;16.42;;;6.80;;
37203;SDS011;23098;48.054;10.636;2022-11-06T05:40:07;20.25;;;6.15;;
37203;SDS011;23098;48.054;10.636;2022-11-06T05:42:33;14.23;;;5.88;;
37203;SDS011;23098;48.054;10.636;2022-11-06T05:45:04;14.45;;;5.45;;
37203;SDS011;23098;48.054;10.636;2022-11-06T05:47:30;12.20;;;5.55;;
37203;SDS011;23098;48.054;10.636;2022-11-06T05:49:56;10.13;;;5.18;;
37203;SDS011;23098;48.054;10.636;2022-11-06T05:52:22;10.15;;;5.07;;
37203;SDS011;23098;48.054;10.636;2022-11-06T05:54:47;32.95;;;6.07;;
37203;SDS011;23098;48.054;10.636;2022-11-06T05:57:13;50.55;;;6.53;;
37203;SDS011;23098;48.054;10.636;2022-11-06T05:59:38;17.30;;;6.20;;
37203;SDS011;23098;48.054;10.636;2022-11-06T06:02:04;14.55;;;6.40;;
37203;SDS011;23098;48.054;10.636;2022-11-06T06:04:30;21.10;;;6.47;;
37203;SDS011;23098;48.054;10.636;2022-11-06T06:06:55;65.43;;;7.40;;
37203;SDS011;23098;48.054;10.636;2022-11-06T06:09:21;25.77;;;5.95;;
37203;SDS011;23098;48.054;10.636;2022-11-06T06:11:50;26.58;;;5.75;;
37203;SDS011;23098;48.054;10.636;2022-11-06T06:14:16;10.00;;;5.57;;
37203;SDS011;23098;48.054;10.636;2022-11-06T06:16:42;32.08;;;5.85;;
37203;SDS011;23098;48.054;10.636;2022-11-06T06:19:08;32.42;;;5.78;;
37203;SDS011;23098;48.054;10.636;2022-11-06T06:21:33;31.40;;;5.80;;
37203;SDS011;23098;48.054;10.636;2022-11-06T06:24:00;17.90;;;5.53;;
37203;SDS011;23098;48.054;10.636;2022-11-06T06:26:26;9.10;;;4.78;;
37203;SDS011;23098;48.054;10.636;2022-11-06T06:28:52;12.75;;;4.35;;
37203;SDS011;23098;48.054;10.636;2022-11-06T06:31:17;7.57;;;4.47;;
37203;SDS011;23098;48.054;10.636;2022-11-06T06:33:43;6.10;;;4.05;;
37203;SDS011;23098;48.054;10.636;2022-11-06T06:36:08;7.28;;;3.95;;
37203;SDS011;23098;48.054;10.636;2022-11-06T06:38:34;8.05;;;4.18;;
37203;SDS011;23098;48.054;10.636;2022-11-06T06:41:01;8.43;;;4.50;;
37203;SDS011;23098;48.054;10.636;2022-11-06T06:43:28;6.18;;;4.32;;
37203;SDS011;23098;48.054;10.636;2022-11-06T06:45:58;8.48;;;5.72;;
37203;SDS011;23098;48.054;10.636;2022-11-06T06:48:24;7.68;;;5.43;;
37203;SDS011;23098;48.054;10.636;2022-11-06T06:50:49;9.77;;;6.20;;
37203;SDS011;23098;48.054;10.636;2022-11-06T06:53:15;9.68;;;5.78;;
37203;SDS011;23098;48.054;10.636;2022-11-06T06:55:40;11.05;;;7.45;;
37203;SDS011;23098;48.054;10.636;2022-11-06T06:58:06;17.55;;;8.73;;
37203;SDS011;23098;48.054;10.636;2022-11-06T07:00:32;15.68;;;8.35;;
37203;SDS011;23098;48.054;10.636;2022-11-06T07:02:57;20.05;;;10.15;;
37203;SDS011;23098;48.054;10.636;2022-11-06T07:05:23;16.67;;;9.02;;
37203;SDS011;23098;48.054;10.636;2022-11-06T07:07:48;17.08;;;8.88;;
37203;SDS011;23098;48.054;10.636;2022-11-06T07:10:14;19.08;;;9.75;;
37203;SDS011;23098;48.054;10.636;2022-11-06T07:12:40;13.20;;;7.63;;
37203;SDS011;23098;48.054;10.636;2022-11-06T07:15:05;12.05;;;6.75;;
37203;SDS011;23098;48.054;10.636;2022-11-06T07:17:32;10.68;;;6.35;;
37203;SDS011;23098;48.054;10.636;2022-11-06T07:19:58;11.55;;;6.65;;
37203;SDS011;23098;48.054;10.636;2022-11-06T07:22:28;10.77;;;6.13;;
37203;SDS011;23098;48.054;10.636;2022-11-06T07:24:53;10.43;;;6.13;;
37203;SDS011;23098;48.054;10.636;2022-11-06T07:27:19;8.07;;;5.60;;
37203;SDS011;23098;48.054;10.636;2022-11-06T07:29:45;10.80;;;5.88;;
37203;SDS011;23098;48.054;10.636;2022-11-06T07:32:10;8.93;;;5.63;;
37203;SDS011;23098;48.054;10.636;2022-11-06T07:34:36;7.57;;;5.30;;
37203;SDS011;23098;48.054;10.636;2022-11-06T07:37:03;10.43;;;6.30;;
37203;SDS011;23098;48.054;10.636;2022-11-06T07:39:29;10.95;;;7.05;;
37203;SDS011;23098;48.054;10.636;2022-11-06T07:41:55;8.43;;;5.75;;
37203;SDS011;23098;48.054;10.636;2022-11-06T07:44:21;8.60;;;5.40;;
37203;SDS011;23098;48.054;10.636;2022-11-06T07:46:46;7.85;;;5.65;;
37203;SDS011;23098;48.054;10.636;2022-11-06T07:49:12;7.00;;;4.60;;
37203;SDS011;23098;48.054;10.636;2022-11-06T07:51:41;7.03;;;4.82;;
37203;SDS011;23098;48.054;10.636;2022-11-06T07:54:07;7.13;;;5.18;;
37203;SDS011;23098;48.054;10.636;2022-11-06T07:56:34;6.15;;;4.43;;
37203;SDS011;23098;48.054;10.636;2022-11-06T07:58:59;6.13;;;4.45;;
37203;SDS011;23098;48.054;10.636;2022-11-06T08:01:25;5.07;;;4.07;;
37203;SDS011;23098;48.054;10.636;2022-11-06T08:03:50;8.32;;;5.38;;
37203;SDS011;23098;48.054;10.636;2022-11-06T08:06:18;12.82;;;6.70;;
37203;SDS011;23098;48.054;10.636;2022-11-06T08:08:53;8.55;;;5.90;;
37203;SDS011;23098;48.054;10.636;2022-11-06T08:11:18;7.68;;;5.32;;
37203;SDS011;23098;48.054;10.636;2022-11-06T08:13:44;7.50;;;4.90;;
37203;SDS011;23098;48.054;10.636;2022-11-06T08:16:12;6.60;;;4.38;;
37203;SDS011;23098;48.054;10.636;2022-11-06T08:18:38;6.18;;;4.18;;
37203;SDS011;23098;48.054;10.636;2022-11-06T08:21:05;9.18;;;4.00;;
37203;SDS011;23098;48.054;10.636;2022-11-06T08:23:31;5.85;;;3.70;;
37203;SDS011;23098;48.054;10.636;2022-11-06T08:25:59;5.45;;;3.80;;
37203;SDS011;23098;48.054;10.636;2022-11-06T08:28:26;5.60;;;3.50;;
37203;SDS011;23098;48.054;10.636;2022-11-06T08:30:52;5.97;;;3.90;;
37203;SDS011;23098;48.054;10.636;2022-11-06T08:33:18;10.48;;;5.38;;
37203;SDS011;23098;48.054;10.636;2022-11-06T08:35:45;6.82;;;4.43;;
37203;SDS011;23098;48.054;10.636;2022-11-06T08:38:11;7.15;;;4.32;;
37203;SDS011;23098;48.054;10.636;2022-11-06T08:40:38;5.75;;;3.90;;
37203;SDS011;23098;48.054;10.636;2022-11-06T08:43:07;5.82;;;4.07;;
37203;SDS011;23098;48.054;10.636;2022-11-06T08:45:38;5.82;;;3.88;;
37203;SDS011;23098;48.054;10.636;2022-11-06T08:48:04;5.40;;;4.07;;
37203;SDS011;23098;48.054;10.636;2022-11-06T08:50:31;6.15;;;4.30;;
37203;SDS011;23098;48.054;10.636;2022-11-06T08:52:58;6.40;;;4.05;;
37203;SDS011;23098;48.054;10.636;2022-11-06T08:55:35;5.20;;;3.70;;
37203;SDS011;23098;48.054;10.636;2022-11-06T08:58:02;5.30;;;3.30;;
37203;SDS011;23098;48.054;10.636;2022-11-06T09:00:28;4.93;;;3.63;;
37203;SDS011;23098;48.054;10.636;2022-11-06T09:03:03;5.03;;;2.88;;
37203;SDS011;23098;48.054;10.636;2022-11-06T09:05:31;4.10;;;3.20;;
37203;SDS011;23098;48.054;10.636;2022-11-06T09:07:57;4.38;;;2.80;;
37203;SDS011;23098;48.054;10.636;2022-11-06T09:10:23;3.25;;;2.60;;
37203;SDS011;23098;48.054;10.636;2022-11-06T09:12:51;3.88;;;2.75;;
37203;SDS011;23098;48.054;10.636;2022-11-06T09:15:17;3.17;;;2.40;;
37203;SDS011;23098;48.054;10.636;2022-11-06T09:17:48;2.70;;;2.22;;
37203;SDS011;23098;48.054;10.636;2022-11-06T09:20:15;3.50;;;2.55;;
37203;SDS011;23098;48.054;10.636;2022-11-06T09:22:42;5.28;;;3.08;;
37203;SDS011;23098;48.054;10.636;2022-11-06T09:25:09;3.83;;;2.58;;
37203;SDS011;23098;48.054;10.636;2022-11-06T09:27:45;2.72;;;2.38;;
37203;SDS011;23098;48.054;10.636;2022-11-06T09:30:18;3.03;;;2.65;;
37203;SDS011;23098;48.054;10.636;2022-11-06T09:32:52;5.45;;;3.30;;
37203;SDS011;23098;48.054;10.636;2022-11-06T09:35:20;3.28;;;2.90;;
37203;SDS011;23098;48.054;10.636;2022-11-06T09:37:47;4.70;;;3.30;;
37203;SDS011;23098;48.054;10.636;2022-11-06T09:40:17;3.15;;;2.50;;
37203;SDS011;23098;48.054;10.636;2022-11-06T09:42:52;2.88;;;2.45;;
37203;SDS011;23098;48.054;10.636;2022-11-06T09:45:32;2.72;;;2.25;;
37203;SDS011;23098;48.054;10.636;2022-11-06T09:48:03;3.20;;;2.15;;
37203;SDS011;23098;48.054;10.636;2022-11-06T09:50:36;2.35;;;2.15;;
37203;SDS011;23098;48.054;10.636;2022-11-06T09:53:09;2.88;;;2.42;;
37203;SDS011;23098;48.054;10.636;2022-11-06T09:55:41;2.85;;;2.08;;
37203;SDS011;23098;48.054;10.636;2022-11-06T10:00:39;4.27;;;1.70;;
37203;SDS011;23098;48.054;10.636;2022-11-06T10:03:11;2.53;;;2.17;;
37203;SDS011;23098;48.054;10.636;2022-11-06T10:05:41;1.80;;;1.65;;
37203;SDS011;23098;48.054;10.636;2022-11-06T10:08:16;2.47;;;1.95;;
37203;SDS011;23098;48.054;10.636;2022-11-06T10:10:51;2.53;;;1.92;;
37203;SDS011;23098;48.054;10.636;2022-11-06T10:13:32;3.50;;;2.17;;
37203;SDS011;23098;48.054;10.636;2022-11-06T10:16:35;3.05;;;2.10;;
37203;SDS011;23098;48.054;10.636;2022-11-06T10:21:47;2.10;;;1.80;;
37203;SDS011;23098;48.054;10.636;2022-11-06T10:24:29;2.17;;;1.98;;
37203;SDS011;23098;48.054;10.636;2022-11-06T10:27:02;2.30;;;1.90;;
37203;SDS011;23098;48.054;10.636;2022-11-06T10:29:38;2.20;;;1.98;;
37203;SDS011;23098;48.054;10.636;2022-11-06T10:35:20;2.05;;;1.80;;
37203;SDS011;23098;48.054;10.636;2022-11-06T10:38:14;2.30;;;1.90;;
37203;SDS011;23098;48.054;10.636;2022-11-06T10:40:49;1.90;;;1.70;;
37203;SDS011;23098;48.054;10.636;2022-11-06T10:48:33;1.98;;;1.77;;
37203;SDS011;23098;48.054;10.636;2022-11-06T10:54:04;2.15;;;1.92;;
37203;SDS011;23098;48.054;10.636;2022-11-06T10:59:31;3.05;;;1.80;;
37203;SDS011;23098;48.054;10.636;2022-11-06T11:01:57;2.00;;;1.70;;
37203;SDS011;23098;48.054;10.636;2022-11-06T11:04:22;1.70;;;1.60;;
37203;SDS011;23098;48.054;10.636;2022-11-06T11:06:48;2.25;;;2.05;;
37203;SDS011;23098;48.054;10.636;2022-11-06T11:09:27;1.52;;;1.40;;
37203;SDS011;23098;48.054;10.636;2022-11-06T11:11:57;2.33;;;2.00;;
37203;SDS011;23098;48.054;10.636;2022-11-06T11:14:29;3.40;;;1.80;;
37203;SDS011;23098;48.054;10.636;2022-11-06T11:16:59;2.20;;;2.00;;
37203;SDS011;23098;48.054;10.636;2022-11-06T11:19:31;2.40;;;2.10;;
37203;SDS011;23098;48.054;10.636;2022-11-06T11:21:59;1.70;;;1.52;;
37203;SDS011;23098;48.054;10.636;2022-11-06T11:29:48;1.77;;;1.58;;
37203;SDS011;23098;48.054;10.636;2022-11-06T11:32:14;2.05;;;1.83;;
37203;SDS011;23098;48.054;10.636;2022-11-06T11:34:43;1.92;;;1.70;;
37203;SDS011;23098;48.054;10.636;2022-11-06T11:37:22;2.17;;;1.92;;
37203;SDS011;23098;48.054;10.636;2022-11-06T11:39:53;1.67;;;1.58;;
37203;SDS011;23098;48.054;10.636;2022-11-06T11:42:26;2.33;;;2.00;;
37203;SDS011;23098;48.054;10.636;2022-11-06T11:47:41;2.00;;;1.73;;
37203;SDS011;23098;48.054;10.636;2022-11-06T11:50:30;2.13;;;1.92;;
37203;SDS011;23098;48.054;10.636;2022-11-06T11:55:42;2.25;;;1.75;;
37203;SDS011;23098;48.054;10.636;2022-11-06T11:58:17;1.98;;;1.80;;
37203;SDS011;23098;48.054;10.636;2022-11-06T12:00:52;1.67;;;1.58;;
37203;SDS011;23098;48.054;10.636;2022-11-06T12:03:31;1.70;;;1.58;;
37203;SDS011;23098;48.054;10.636;2022-11-06T12:06:17;2.25;;;1.73;;
37203;SDS011;23098;48.054;10.636;2022-11-06T12:08:48;1.58;;;1.48;;
37203;SDS011;23098;48.054;10.636;2022-11-06T12:11:21;3.15;;;2.85;;
37203;SDS011;23098;48.054;10.636;2022-11-06T12:16:50;1.80;;;1.70;;
37203;SDS011;23098;48.054;10.636;2022-11-06T12:19:19;2.20;;;2.00;;
37203;SDS011;23098;48.054;10.636;2022-11-06T12:21:50;2.22;;;1.75;;
37203;SDS011;23098;48.054;10.636;2022-11-06T12:24:33;2.08;;;1.48;;
37203;SDS011;23098;48.054;10.636;2022-11-06T12:27:19;3.05;;;2.30;;
37203;SDS011;23098;48.054;10.636;2022-11-06T12:29:51;2.47;;;1.85;;
37203;SDS011;23098;48.054;10.636;2022-11-06T12:35:41;2.03;;;1.70;;
37203;SDS011;23098;48.054;10.636;2022-11-06T12:41:32;2.08;;;1.60;;
37203;SDS011;23098;48.054;10.636;2022-11-06T12:44:01;2.65;;;1.92;;
37203;SDS011;23098;48.054;10.636;2022-11-06T12:55:53;1.80;;;1.50;;
37203;SDS011;23098;48.054;10.636;2022-11-06T13:04:14;1.60;;;1.50;;
37203;SDS011;23098;48.054;10.636;2022-11-06T13:07:05;2.00;;;1.40;;
37203;SDS011;23098;48.054;10.636;2022-11-06T13:12:29;1.52;;;1.05;;
37203;SDS011;23098;48.054;10.636;2022-11-06T13:17:58;1.73;;;1.60;;
37203;SDS011;23098;48.054;10.636;2022-11-06T13:20:39;1.27;;;1.17;;
37203;SDS011;23098;48.054;10.636;2022-11-06T13:23:30;1.60;;;1.20;;
37203;SDS011;23098;48.054;10.636;2022-11-06T13:29:02;1.52;;;1.38;;
37203;SDS011;23098;48.054;10.636;2022-11-06T13:32:18;2.80;;;1.30;;
37203;SDS011;23098;48.054;10.636;2022-11-06T13:34:26;1.40;;;1.30;;
37203;SDS011;23098;48.054;10.636;2022-11-06T13:37:00;1.20;;;1.10;;
37203;SDS011;23098;48.054;10.636;2022-11-06T13:39:31;1.40;;;1.23;;
37203;SDS011;23098;48.054;10.636;2022-11-06T13:42:00;1.20;;;1.10;;
37203;SDS011;23098;48.054;10.636;2022-11-06T13:44:30;2.13;;;1.60;;
37203;SDS011;23098;48.054;10.636;2022-11-06T14:00:45;1.40;;;1.23;;
37203;SDS011;23098;48.054;10.636;2022-11-06T14:06:24;1.40;;;1.27;;
37203;SDS011;23098;48.054;10.636;2022-11-06T14:08:53;1.50;;;1.20;;
37203;SDS011;23098;48.054;10.636;2022-11-06T14:11:27;1.50;;;0.90;;
37203;SDS011;23098;48.054;10.636;2022-11-06T14:13:56;1.40;;;1.25;;
37203;SDS011;23098;48.054;10.636;2022-11-06T14:16:31;2.08;;;1.20;;
37203;SDS011;23098;48.054;10.636;2022-11-06T14:19:11;1.20;;;1.08;;
37203;SDS011;23098;48.054;10.636;2022-11-06T14:21:47;1.20;;;1.10;;
37203;SDS011;23098;48.054;10.636;2022-11-06T14:27:00;1.92;;;1.63;;
37203;SDS011;23098;48.054;10.636;2022-11-06T14:29:40;1.80;;;1.38;;
37203;SDS011;23098;48.054;10.636;2022-11-06T14:38:16;1.92;;;1.30;;
37203;SDS011;23098;48.054;10.636;2022-11-06T14:40:56;1.40;;;1.30;;
37203;SDS011;23098;48.054;10.636;2022-11-06T14:43:24;1.52;;;1.40;;
37203;SDS011;23098;48.054;10.636;2022-11-06T14:46:36;1.70;;;1.40;;
37203;SDS011;23098;48.054;10.636;2022-11-06T14:48:48;1.20;;;1.10;;
37203;SDS011;23098;48.054;10.636;2022-11-06T14:51:20;1.70;;;1.40;;
37203;SDS011;23098;48.054;10.636;2022-11-06T14:53:51;1.88;;;1.33;;
37203;SDS011;23098;48.054;10.636;2022-11-06T14:56:20;1.40;;;1.10;;
37203;SDS011;23098;48.054;10.636;2022-11-06T14:58:52;1.23;;;1.10;;
37203;SDS011;23098;48.054;10.636;2022-11-06T15:01:28;1.67;;;1.13;;
37203;SDS011;23098;48.054;10.636;2022-11-06T15:11:47;1.77;;;1.30;;
37203;SDS011;23098;48.054;10.636;2022-11-06T15:16:50;2.45;;;1.85;;
37203;SDS011;23098;48.054;10.636;2022-11-06T15:19:24;3.20;;;1.90;;
37203;SDS011;23098;48.054;10.636;2022-11-06T15:21:55;2.50;;;2.08;;
37203;SDS011;23098;48.054;10.636;2022-11-06T15:24:50;3.83;;;2.60;;
37203;SDS011;23098;48.054;10.636;2022-11-06T15:27:27;5.15;;;2.83;;
37203;SDS011;23098;48.054;10.636;2022-11-06T15:30:00;6.10;;;3.55;;
37203;SDS011;23098;48.054;10.636;2022-11-06T15:32:32;5.70;;;3.70;;
37203;SDS011;23098;48.054;10.636;2022-11-06T15:35:13;6.13;;;3.90;;
37203;SDS011;23098;48.054;10.636;2022-11-06T15:37:45;4.63;;;3.33;;
37203;SDS011;23098;48.054;10.636;2022-11-06T15:40:20;7.47;;;3.20;;
37203;SDS011;23098;48.054;10.636;2022-11-06T15:42:46;40.97;;;22.52;;
37203;SDS011;23098;48.054;10.636;2022-11-06T15:47:54;5.25;;;3.13;;
37203;SDS011;23098;48.054;10.636;2022-11-06T15:50:24;5.75;;;3.20;;
37203;SDS011;23098;48.054;10.636;2022-11-06T15:52:52;4.50;;;2.60;;
37203;SDS011;23098;48.054;10.636;2022-11-06T15:55:27;3.35;;;2.33;;
37203;SDS011;23098;48.054;10.636;2022-11-06T15:58:04;3.67;;;2.80;;
37203;SDS011;23098;48.054;10.636;2022-11-06T16:00:49;4.35;;;3.25;;
37203;SDS011;23098;48.054;10.636;2022-11-06T16:03:19;5.18;;;3.45;;
37203;SDS011;23098;48.054;10.636;2022-11-06T16:05:46;5.53;;;3.65;;
37203;SDS011;23098;48.054;10.636;2022-11-06T16:08:13;6.25;;;3.72;;
37203;SDS011;23098;48.054;10.636;2022-11-06T16:10:41;6.80;;;4.45;;
37203;SDS011;23098;48.054;10.636;2022-11-06T16:13:12;6.68;;;4.45;;
37203;SDS011;23098;48.054;10.636;2022-11-06T16:21:18;5.20;;;3.70;;
37203;SDS011;23098;48.054;10.636;2022-11-06T16:23:50;4.57;;;3.42;;
37203;SDS011;23098;48.054;10.636;2022-11-06T16:28:59;4.68;;;3.50;;
37203;SDS011;23098;48.054;10.636;2022-11-06T16:31:27;10.45;;;7.82;;
37203;SDS011;23098;48.054;10.636;2022-11-06T16:33:54;7.55;;;6.00;;
37203;SDS011;23098;48.054;10.636;2022-11-06T16:36:22;8.05;;;5.90;;
37203;SDS011;23098;48.054;10.636;2022-11-06T16:38:48;9.52;;;6.75;;
37203;SDS011;23098;48.054;10.636;2022-11-06T16:41:17;6.85;;;5.10;;
37203;SDS011;23098;48.054;10.636;2022-11-06T16:44:23;9.50;;;6.32;;
37203;SDS011;23098;48.054;10.636;2022-11-06T16:47:09;8.98;;;7.10;;
37203;SDS011;23098;48.054;10.636;2022-11-06T16:49:44;12.00;;;9.02;;
37203;SDS011;23098;48.054;10.636;2022-11-06T16:52:30;11.45;;;7.22;;
37203;SDS011;23098;48.054;10.636;2022-11-06T16:55:00;10.75;;;7.70;;
37203;SDS011;23098;48.054;10.636;2022-11-06T16:57:31;11.18;;;7.53;;
37203;SDS011;23098;48.054;10.636;2022-11-06T17:05:15;6.15;;;3.40;;
37203;SDS011;23098;48.054;10.636;2022-11-06T17:07:43;5.75;;;3.67;;
37203;SDS011;23098;48.054;10.636;2022-11-06T17:13:11;5.80;;;3.60;;
37203;SDS011;23098;48.054;10.636;2022-11-06T17:15:44;4.85;;;3.35;;
37203;SDS011;23098;48.054;10.636;2022-11-06T17:18:19;6.72;;;3.95;;
37203;SDS011;23098;48.054;10.636;2022-11-06T17:20:49;6.57;;;3.40;;
37203;SDS011;23098;48.054;10.636;2022-11-06T17:23:26;3.90;;;2.88;;
37203;SDS011;23098;48.054;10.636;2022-11-06T17:25:53;4.00;;;3.15;;
37203;SDS011;23098;48.054;10.636;2022-11-06T17:28:21;5.93;;;3.38;;